createdAt,value
2018-11-20T00:02:21.587Z,3.80
2018-11-20T00:04:57.225Z,4.73
2018-11-20T00:07:31.505Z,6.00
2018-11-20T00:10:08.097Z,5.33
2018-11-20T00:12:42.026Z,5.77
2018-11-20T00:15:18.431Z,5.33
2018-11-20T00:18:03.599Z,6.73
2018-11-20T00:20:44.134Z,9.17
2018-11-20T00:23:40.812Z,6.47
2018-11-20T00:30:56.232Z,6.80
2018-11-20T00:33:30.997Z,5.10
2018-11-20T00:36:06.278Z,7.63
2018-11-20T00:38:42.222Z,8.50
2018-11-20T00:41:17.365Z,6.67
2018-11-20T00:43:51.586Z,6.60
2018-11-20T00:46:35.176Z,9.00
2018-11-20T00:49:08.834Z,6.90
2018-11-20T00:51:45.435Z,11.23
2018-11-20T00:54:23.927Z,7.20
2018-11-20T00:57:07.465Z,10.37
2018-11-20T00:59:46.595Z,7.20
2018-11-20T01:02:20.863Z,9.67
2018-11-20T01:04:55.120Z,6.33
2018-11-20T01:07:29.248Z,9.70
2018-11-20T01:10:07.126Z,10.23
2018-11-20T01:12:41.555Z,7.60
2018-11-20T01:15:15.107Z,8.83
2018-11-20T01:17:50.495Z,9.23
2018-11-20T01:22:30.689Z,12.50
2018-11-20T01:25:08.032Z,11.87
2018-11-20T01:27:44.667Z,9.80
2018-11-20T01:30:24.295Z,13.03
2018-11-20T01:34:05.436Z,13.07
2018-11-20T01:36:55.569Z,11.73
2018-11-20T01:39:36.111Z,9.90
2018-11-20T01:42:13.626Z,11.50
2018-11-20T01:44:48.833Z,9.97
2018-11-20T01:47:24.676Z,13.53
2018-11-20T01:49:58.895Z,12.07
2018-11-20T01:54:40.641Z,10.90
2018-11-20T01:57:17.720Z,13.37
2018-11-20T02:00:21.819Z,12.80
2018-11-20T02:02:56.644Z,14.03
2018-11-20T02:05:29.743Z,9.90
2018-11-20T02:08:03.956Z,10.60
2018-11-20T02:12:39.964Z,10.33
2018-11-20T02:16:11.235Z,13.17
2018-11-20T02:18:49.030Z,10.60
2018-11-20T02:21:25.251Z,9.70
2018-11-20T02:23:58.635Z,10.13
2018-11-20T02:26:33.384Z,12.87
2018-11-20T02:29:08.572Z,11.83
2018-11-20T02:33:45.776Z,10.23
2018-11-20T02:36:26.944Z,14.20
2018-11-20T02:39:02.518Z,10.73
2018-11-20T02:41:36.410Z,10.83
2018-11-20T02:44:16.148Z,9.57
2018-11-20T02:48:52.642Z,13.10
2018-11-20T02:53:34.380Z,12.43
2018-11-20T02:56:15.307Z,12.43
2018-11-20T02:58:49.237Z,8.90
2018-11-20T03:01:27.144Z,13.07
2018-11-20T03:04:01.547Z,11.93
2018-11-20T03:08:39.394Z,11.30
2018-11-20T03:11:15.366Z,14.07
2018-11-20T03:13:58.224Z,11.87
2018-11-20T03:16:34.834Z,11.67
2018-11-20T03:19:10.901Z,14.27
2018-11-20T03:21:45.961Z,10.13
2018-11-20T03:24:22.858Z,10.73
2018-11-20T03:26:59.766Z,14.53
2018-11-20T03:31:45.101Z,14.03
2018-11-20T03:35:21.066Z,11.27
2018-11-20T03:38:05.375Z,9.43
2018-11-20T03:40:39.610Z,13.87
2018-11-20T03:43:14.041Z,17.70
2018-11-20T03:45:53.732Z,12.43
2018-11-20T03:48:38.868Z,13.00
2018-11-20T03:51:16.095Z,9.23
2018-11-20T03:53:50.190Z,13.87
2018-11-20T03:56:23.196Z,13.70
2018-11-20T03:59:00.162Z,11.93
2018-11-20T04:01:34.196Z,14.00
2018-11-20T04:04:10.014Z,12.60
2018-11-20T04:06:43.320Z,12.93
2018-11-20T04:09:17.537Z,11.67
2018-11-20T04:11:59.525Z,13.73
2018-11-20T04:14:53.514Z,10.83
2018-11-20T04:19:34.627Z,11.03
2018-11-20T04:22:08.757Z,11.87
2018-11-20T04:24:44.797Z,12.20
2018-11-20T04:27:18.769Z,11.27
2018-11-20T04:29:52.876Z,11.43
2018-11-20T04:32:28.752Z,9.60
2018-11-20T04:35:03.211Z,8.67
2018-11-20T04:37:55.209Z,12.67
2018-11-20T04:40:28.534Z,12.07
2018-11-20T04:43:04.391Z,9.47
2018-11-20T04:45:40.692Z,14.63
2018-11-20T04:48:20.838Z,16.37
2018-11-20T04:50:54.501Z,13.33
2018-11-20T04:53:35.102Z,14.30
2018-11-20T05:01:01.558Z,12.93
2018-11-20T05:03:39.666Z,14.77
2018-11-20T05:06:17.460Z,13.83
2018-11-20T05:10:56.659Z,13.57
2018-11-20T05:13:33.640Z,12.83
2018-11-20T05:18:18.306Z,13.40
2018-11-20T05:21:02.200Z,14.23
2018-11-20T05:25:40.736Z,10.60
2018-11-20T05:28:21.167Z,14.93
2018-11-20T05:31:02.613Z,16.13
2018-11-20T05:33:47.334Z,13.00
2018-11-20T05:36:55.518Z,14.80
2018-11-20T05:41:36.859Z,14.07
2018-11-20T05:44:13.350Z,13.77
2018-11-20T05:46:52.136Z,11.40
2018-11-20T05:49:28.518Z,17.60
2018-11-20T05:52:05.337Z,13.80
2018-11-20T05:54:58.315Z,14.70
2018-11-20T05:57:38.772Z,18.20
2018-11-20T06:00:14.952Z,20.37
2018-11-20T06:06:17.777Z,20.57
2018-11-20T06:08:52.000Z,18.77
2018-11-20T06:11:26.221Z,21.03
2018-11-20T06:14:04.118Z,23.50
2018-11-20T06:16:41.093Z,17.17
2018-11-20T06:19:15.426Z,18.37
2018-11-20T06:21:49.226Z,15.83
2018-11-20T06:24:25.869Z,17.00
2018-11-20T06:27:02.498Z,20.27
2018-11-20T06:29:43.242Z,17.90
2018-11-20T06:32:25.803Z,16.10
2018-11-20T06:35:02.587Z,19.93
2018-11-20T06:37:38.758Z,18.40
2018-11-20T06:40:23.271Z,18.23
2018-11-20T06:43:00.038Z,19.50
2018-11-20T06:45:36.403Z,19.47
2018-11-20T06:48:24.976Z,19.03
2018-11-20T06:51:06.042Z,18.17
2018-11-20T06:53:45.600Z,19.53
2018-11-20T06:56:21.071Z,21.67
2018-11-20T07:01:02.931Z,19.17
2018-11-20T07:03:55.455Z,20.10
2018-11-20T07:06:36.728Z,22.73
2018-11-20T07:09:29.425Z,21.20
2018-11-20T07:12:06.998Z,21.90
2018-11-20T07:14:51.680Z,20.33
2018-11-20T07:18:05.069Z,20.40
2018-11-20T07:20:51.875Z,22.30
2018-11-20T07:26:23.070Z,22.50
2018-11-20T07:31:00.281Z,18.93
2018-11-20T07:33:36.705Z,19.70
2018-11-20T07:36:16.909Z,25.63
2018-11-20T07:38:57.078Z,22.10
2018-11-20T07:43:36.420Z,17.30
2018-11-20T07:48:19.406Z,20.50
2018-11-20T07:50:53.831Z,19.33
2018-11-20T07:53:34.733Z,24.80
2018-11-20T07:56:25.655Z,20.40
2018-11-20T07:59:00.140Z,19.80
2018-11-20T08:01:33.136Z,24.27
2018-11-20T08:04:08.217Z,21.97
2018-11-20T08:06:47.141Z,18.53
2018-11-20T08:09:21.073Z,16.20
2018-11-20T08:11:56.092Z,22.07
2018-11-20T08:14:30.159Z,25.43
2018-11-20T08:17:11.438Z,23.43
2018-11-20T08:19:45.924Z,24.20
2018-11-20T08:22:25.958Z,21.83
2018-11-20T08:24:59.993Z,26.73
2018-11-20T08:29:39.215Z,17.93
2018-11-20T08:32:14.590Z,23.73
2018-11-20T08:36:53.032Z,27.97
2018-11-20T08:40:01.286Z,21.50
2018-11-20T08:42:35.525Z,26.93
2018-11-20T08:45:09.710Z,22.77
2018-11-20T08:47:44.079Z,29.73
2018-11-20T08:50:18.309Z,22.00
2018-11-20T08:52:52.683Z,30.87
2018-11-20T08:57:28.654Z,22.67
2018-11-20T09:00:02.879Z,22.60
2018-11-20T09:03:10.006Z,24.90
2018-11-20T09:05:45.872Z,25.73
2018-11-20T09:08:20.147Z,20.93
2018-11-20T09:12:56.261Z,22.23
2018-11-20T09:15:31.448Z,22.60
2018-11-20T09:18:07.936Z,24.63
2018-11-20T09:20:46.377Z,24.70
2018-11-20T09:23:20.623Z,22.57
2018-11-20T09:25:59.595Z,23.57
2018-11-20T09:28:35.085Z,22.77
2018-11-20T09:31:12.366Z,22.07
2018-11-20T09:34:22.464Z,24.30
2018-11-20T09:36:55.658Z,26.53
2018-11-20T09:39:30.860Z,23.33
2018-11-20T09:44:07.934Z,23.00
2018-11-20T09:46:41.843Z,22.03
2018-11-20T09:49:16.224Z,26.00
2018-11-20T09:51:56.089Z,33.07
2018-11-20T09:54:32.189Z,24.13
2018-11-20T09:57:05.229Z,33.37
2018-11-20T09:59:42.200Z,27.40
2018-11-20T10:02:18.245Z,27.13
2018-11-20T10:06:56.558Z,33.90
2018-11-20T10:09:34.624Z,26.47
2018-11-20T10:14:14.909Z,34.53
2018-11-20T10:16:48.740Z,34.40
2018-11-20T10:19:21.783Z,33.33
2018-11-20T10:21:58.820Z,31.30
2018-11-20T10:24:32.925Z,31.77
2018-11-20T10:27:11.810Z,29.90
2018-11-20T10:31:47.028Z,27.27
2018-11-20T10:34:35.001Z,32.27
2018-11-20T10:37:08.894Z,27.27
2018-11-20T10:40:17.060Z,26.37
2018-11-20T10:44:53.488Z,27.97
2018-11-20T10:47:41.295Z,24.73
2018-11-20T10:50:15.341Z,25.73
2018-11-20T10:52:49.746Z,27.87
2018-11-20T10:56:30.858Z,23.30
2018-11-20T10:59:03.915Z,29.60
2018-11-20T11:01:38.679Z,21.23
2018-11-20T11:04:39.423Z,18.40
2018-11-20T11:07:12.899Z,29.20
2018-11-20T11:09:46.863Z,25.07
2018-11-20T11:14:23.959Z,21.63
2018-11-20T11:16:57.823Z,20.90
2018-11-20T11:19:38.632Z,29.60
2018-11-20T11:22:15.689Z,27.03
2018-11-20T11:24:49.890Z,23.63
2018-11-20T11:29:26.942Z,23.30
2018-11-20T11:32:01.826Z,23.70
2018-11-20T11:34:36.398Z,31.90
2018-11-20T11:39:13.394Z,34.53
2018-11-20T11:41:47.454Z,25.07
2018-11-20T11:46:26.357Z,26.13
2018-11-20T11:49:05.122Z,27.07
2018-11-20T11:51:54.130Z,30.40
2018-11-20T11:54:48.017Z,31.07
2018-11-20T11:59:26.274Z,25.93
2018-11-20T12:41:07.364Z,30.27
2018-11-20T12:43:56.853Z,33.20
2018-11-20T12:46:51.002Z,27.83
2018-11-20T12:49:44.581Z,29.63
2018-11-20T12:52:35.192Z,24.07
2018-11-20T12:55:22.063Z,30.37
2018-11-20T12:58:00.326Z,27.87
2018-11-20T13:00:51.297Z,25.77
2018-11-20T13:03:45.626Z,32.17
2018-11-20T13:06:32.916Z,30.63
2018-11-20T13:09:33.172Z,26.23
2018-11-20T13:12:17.547Z,28.40
2018-11-20T13:15:01.773Z,29.37
2018-11-20T13:17:45.156Z,38.03
2018-11-20T13:20:35.664Z,26.23
2018-11-20T13:23:25.426Z,34.33
2018-11-20T13:26:13.545Z,33.57
2018-11-20T13:29:10.356Z,26.53
2018-11-20T13:31:57.410Z,27.33
2018-11-20T13:34:51.498Z,30.10
2018-11-20T13:37:38.307Z,28.80
2018-11-20T13:41:07.190Z,31.83
2018-11-20T13:43:52.855Z,25.77
2018-11-20T13:46:41.085Z,36.30
2018-11-20T13:49:31.971Z,24.57
2018-11-20T13:52:22.848Z,26.77
2018-11-20T13:55:00.433Z,35.03
2018-11-20T13:57:46.824Z,32.43
2018-11-20T14:00:34.828Z,28.07
2018-11-20T14:03:09.620Z,34.33
2018-11-20T14:05:56.466Z,23.90
2018-11-20T14:08:36.781Z,27.33
2018-11-20T14:11:22.066Z,20.13
2018-11-20T14:13:57.197Z,31.83
2018-11-20T14:16:44.452Z,34.77
2018-11-20T14:19:42.044Z,41.47
2018-11-20T14:22:33.169Z,24.83
2018-11-20T14:25:32.409Z,20.90
2018-11-20T14:28:18.870Z,25.40
2018-11-20T14:31:12.638Z,23.40
2018-11-20T14:33:58.723Z,30.37
2018-11-20T14:36:45.879Z,31.37
2018-11-20T14:39:24.985Z,20.43
2018-11-20T14:42:12.008Z,30.13
2018-11-20T14:44:59.132Z,29.60
2018-11-20T14:47:56.293Z,29.93
2018-11-20T14:50:54.333Z,27.93
2018-11-20T14:53:48.151Z,28.20
2018-11-20T14:56:28.885Z,25.97
2018-11-20T14:59:32.216Z,24.83
2018-11-20T15:02:24.013Z,29.30
2018-11-20T15:05:11.298Z,30.23
2018-11-20T15:07:59.213Z,25.73
2018-11-20T15:10:45.663Z,28.27
2018-11-20T15:13:32.274Z,27.70
2018-11-20T15:16:08.847Z,32.13
2018-11-20T15:19:04.206Z,29.70
2018-11-20T15:22:07.377Z,32.43
2018-11-20T15:24:54.299Z,30.17
2018-11-20T15:27:45.384Z,27.43
2018-11-20T15:30:36.129Z,33.40
2018-11-20T15:33:14.247Z,25.30
2018-11-20T15:36:05.286Z,31.53
2018-11-20T15:38:53.298Z,33.53
2018-11-20T15:41:41.366Z,31.83
2018-11-20T15:44:21.086Z,27.63
2018-11-20T15:47:08.099Z,33.23
2018-11-20T15:53:36.247Z,30.87
2018-11-20T15:59:56.147Z,30.83
2018-11-20T16:02:50.649Z,35.77
2018-11-20T16:05:39.056Z,35.60
2018-11-20T16:08:25.786Z,32.40
2018-11-20T16:11:31.542Z,34.93
2018-11-20T16:14:34.976Z,34.93
2018-11-20T16:17:22.246Z,32.47
2018-11-20T16:20:28.755Z,36.13
2018-11-20T16:23:23.364Z,36.60
2018-11-20T16:26:14.090Z,38.90
2018-11-20T16:29:06.737Z,31.77
2018-11-20T16:32:02.305Z,30.03
2018-11-20T16:34:55.923Z,35.10
2018-11-20T16:37:42.660Z,24.03
2018-11-20T16:40:29.336Z,30.53
2018-11-20T16:43:30.262Z,32.27
2018-11-20T16:46:39.303Z,33.00
2018-11-20T16:49:38.745Z,27.67
2018-11-20T16:52:30.914Z,33.60
2018-11-20T16:55:20.128Z,35.97
2018-11-20T16:58:26.050Z,30.90
2018-11-20T17:01:13.068Z,37.03
2018-11-20T17:04:04.947Z,32.67
2018-11-20T17:07:02.165Z,32.70
2018-11-20T17:10:00.762Z,29.53
2018-11-20T17:12:49.333Z,29.50
2018-11-20T17:15:41.283Z,30.43
2018-11-20T17:18:36.562Z,33.23
2018-11-20T17:21:36.891Z,31.17
2018-11-20T17:24:27.835Z,32.30
2018-11-20T17:27:16.297Z,34.43
2018-11-20T17:30:17.575Z,25.23
2018-11-20T17:33:06.279Z,34.90
2018-11-20T17:35:51.579Z,32.23
2018-11-20T17:38:39.650Z,33.10
2018-11-20T17:41:30.916Z,32.87
2018-11-20T17:44:11.522Z,33.83
2018-11-20T17:46:47.623Z,33.47
2018-11-20T17:49:37.689Z,31.10
2018-11-20T17:52:36.831Z,26.37
2018-11-20T17:55:23.338Z,31.93
2018-11-20T17:58:05.028Z,34.53
2018-11-20T18:00:53.102Z,36.27
2018-11-20T18:03:59.863Z,34.37
2018-11-20T18:06:41.127Z,36.77
2018-11-20T18:09:35.037Z,26.03
2018-11-20T18:12:32.961Z,32.60
2018-11-20T18:15:19.643Z,29.97
2018-11-20T18:18:23.069Z,38.63
2018-11-20T18:21:08.137Z,29.43
2018-11-20T18:24:10.044Z,33.93
2018-11-20T18:26:51.203Z,30.87
2018-11-20T18:29:37.912Z,23.27
2018-11-20T18:32:35.833Z,33.93
2018-11-20T18:35:31.905Z,32.27
2018-11-20T18:38:27.835Z,27.60
2018-11-20T18:41:22.567Z,34.10
2018-11-20T18:44:19.505Z,29.23
2018-11-20T18:47:06.486Z,32.67
2018-11-20T18:50:09.743Z,25.27
2018-11-20T18:52:45.013Z,33.43
2018-11-20T18:55:26.822Z,36.10
2018-11-20T18:58:20.825Z,30.60
2018-11-20T19:01:21.954Z,29.57
2018-11-20T19:04:08.992Z,25.77
2018-11-20T19:06:57.410Z,32.43
2018-11-20T19:09:40.563Z,33.17
2018-11-20T19:12:27.280Z,28.67
2018-11-20T19:15:17.013Z,28.53
2018-11-20T19:18:05.063Z,27.43
2018-11-20T19:20:59.739Z,23.80
2018-11-20T19:23:46.566Z,23.93
2018-11-20T19:26:42.139Z,25.23
2018-11-20T19:29:28.804Z,20.17
2018-11-20T19:32:24.395Z,23.23
2018-11-20T19:35:11.119Z,26.57
2018-11-20T19:38:00.555Z,27.13
2018-11-20T19:40:52.568Z,23.63
2018-11-20T19:43:58.330Z,21.23
2018-11-20T19:46:57.584Z,27.27
2018-11-20T19:49:46.346Z,31.80
2018-11-20T19:53:03.576Z,24.57
2018-11-20T19:56:18.784Z,27.90
2018-11-20T19:59:12.595Z,27.20
2018-11-20T20:01:59.028Z,27.93
2018-11-20T20:04:52.988Z,26.10
2018-11-20T20:07:57.071Z,32.13
2018-11-20T20:14:02.145Z,29.73
2018-11-20T20:16:49.059Z,30.33
2018-11-20T20:19:37.858Z,32.97
2018-11-20T20:22:24.766Z,31.13
2018-11-20T20:25:34.097Z,34.27
2018-11-20T20:28:31.553Z,34.50
2018-11-20T20:31:36.542Z,37.57
2018-11-20T20:34:39.599Z,38.50
2018-11-20T20:37:20.651Z,38.60
2018-11-20T20:40:26.239Z,37.17
2018-11-20T20:43:13.735Z,33.70
2018-11-20T20:46:06.842Z,29.40
2018-11-20T20:49:37.460Z,32.10
2018-11-20T20:52:34.703Z,45.07
2018-11-20T20:55:23.854Z,32.00
2018-11-20T20:58:21.507Z,34.23
2018-11-20T21:01:11.743Z,32.23
2018-11-20T21:03:59.222Z,27.20
2018-11-20T21:06:46.229Z,32.83
2018-11-20T21:09:36.117Z,34.60
2018-11-20T21:12:26.479Z,38.90
2018-11-20T21:15:20.992Z,39.73
2018-11-20T21:18:04.529Z,35.93
2018-11-20T21:20:51.366Z,35.60
2018-11-20T21:23:46.715Z,36.73
2018-11-20T21:26:33.962Z,36.17
2018-11-20T21:32:47.746Z,33.27
2018-11-20T21:39:19.007Z,33.07
2018-11-20T21:42:43.168Z,40.23
2018-11-20T21:45:34.795Z,36.03
2018-11-20T21:48:35.130Z,33.87
2018-11-20T21:51:33.921Z,34.60
2018-11-20T21:54:19.457Z,38.83
2018-11-20T21:57:01.725Z,43.07
2018-11-20T21:59:53.179Z,33.90
2018-11-20T22:02:54.347Z,36.33
2018-11-20T22:05:42.253Z,40.17
2018-11-20T22:08:25.135Z,39.83
2018-11-20T22:11:11.933Z,35.77
2018-11-20T22:14:03.477Z,41.03
2018-11-20T22:16:54.659Z,39.37
2018-11-20T22:19:43.495Z,37.23
2018-11-20T22:22:30.122Z,38.30
2018-11-20T22:25:36.543Z,36.00
2018-11-20T22:28:25.655Z,33.77
2018-11-20T22:31:01.669Z,40.50
2018-11-20T22:33:49.441Z,41.37
2018-11-20T22:36:43.691Z,41.27
2018-11-20T22:39:30.607Z,36.47
2018-11-20T22:42:16.644Z,42.37
2018-11-20T22:45:08.986Z,38.63
2018-11-20T22:47:55.756Z,41.47
2018-11-20T22:50:37.142Z,45.20
2018-11-20T22:53:24.091Z,45.00
2018-11-20T22:56:11.278Z,42.90
2018-11-20T22:58:54.283Z,42.80
2018-11-20T23:01:37.569Z,36.33
2018-11-20T23:04:29.318Z,35.23
2018-11-20T23:07:20.740Z,41.87
2018-11-20T23:09:49.844Z,44.40
2018-11-20T23:12:19.357Z,47.57
2018-11-20T23:14:48.532Z,43.57
2018-11-20T23:17:17.626Z,34.57
2018-11-20T23:19:47.150Z,50.23
2018-11-20T23:22:16.315Z,39.70
2018-11-20T23:24:45.962Z,47.37
2018-11-20T23:27:16.656Z,42.47
2018-11-20T23:29:45.039Z,42.60
2018-11-20T23:32:14.098Z,39.87
2018-11-20T23:34:44.166Z,41.73
2018-11-20T23:37:13.749Z,48.57
2018-11-20T23:39:44.378Z,44.23
2018-11-20T23:42:13.689Z,42.67
2018-11-20T23:45:47.962Z,39.33
2018-11-20T23:48:16.755Z,43.63
2018-11-20T23:50:46.138Z,36.23
2018-11-20T23:53:15.908Z,38.80
2018-11-20T23:55:45.661Z,36.10
2018-11-20T23:58:18.019Z,43.77
